Time;durP1;ratioP1;P1;durP2;ratioP2;P2;SDS_P1;SDS_P2;PMS_P1;PMS_P2;Temp;Humidity;BMP_temperature;BMP_pressure;BME280_temperature;BME280_humidity;BME280_pressure;Samples;Min_cycle;Max_cycle;Signal;HPM_P1;HPM_P2
2022/08/08 00:00:16;;;;;;;0.38;0.38;;;;;;;15.25;75.09;101187.56;4985108;28;20041;-68
2022/08/08 00:03:18;;;;;;;0.30;0.30;;;;;;;15.28;74.97;101190.13;4985309;28;20057;-68
2022/08/08 00:06:02;;;;;;;0.38;0.38;;;;;;;15.27;75.02;101192.78;4985345;28;20136;-68
2022/08/08 00:08:45;;;;;;;2.58;1.40;;;;;;;15.30;74.71;101188.38;4985155;28;20085;-68
2022/08/08 00:11:26;;;;;;;0.30;0.30;;;;;;;15.35;74.55;101189.13;4985056;28;20155;-68
2022/08/08 00:14:05;;;;;;;0.93;0.90;;;;;;;15.35;74.72;101193.53;4985442;28;20027;-70
2022/08/08 00:16:53;;;;;;;0.30;0.30;;;;;;;15.39;74.65;101189.09;4985002;28;20332;-70
2022/08/08 00:19:57;;;;;;;0.30;0.30;;;;;;;15.41;74.58;101195.16;4984999;28;20050;-70
2022/08/08 00:22:33;;;;;;;0.20;0.20;;;;;;;15.43;74.26;101180.31;4957116;28;20062;-70
2022/08/08 00:25:03;;;;;;;0.20;0.20;;;;;;;15.47;74.57;101184.59;4968693;28;20073;-70
2022/08/08 00:27:30;;;;;;;0.25;0.25;;;;;;;15.44;74.16;101187.25;4984903;28;20038;-70
2022/08/08 00:30:05;;;;;;;0.30;0.30;;;;;;;15.39;74.49;101184.72;4985194;28;20090;-70
2022/08/08 00:32:55;;;;;;;0.30;0.30;;;;;;;15.34;74.54;101187.41;5015630;28;20064;-70
2022/08/08 00:35:53;;;;;;;0.20;0.20;;;;;;;15.36;74.68;101188.25;5008060;28;20049;-69
2022/08/08 00:38:41;;;;;;;0.55;0.55;;;;;;;15.39;74.41;101184.72;5106336;28;20103;-70
2022/08/08 00:41:18;;;;;;;0.30;0.30;;;;;;;15.35;74.65;101191.75;5106131;28;20040;-69
2022/08/08 00:44:15;;;;;;;0.20;0.20;;;;;;;15.40;74.71;101185.59;5106279;28;20043;-70
2022/08/08 00:47:27;;;;;;;0.30;0.30;;;;;;;15.39;74.50;101187.34;5106170;28;20020;-70
2022/08/08 00:50:20;;;;;;;0.60;0.60;;;;;;;15.36;75.07;101192.63;5023557;28;20088;-70
2022/08/08 00:52:45;;;;;;;;;;;;;;;15.36;75.26;101195.25;5024073;28;20033;-70
2022/08/08 00:55:42;;;;;;;0.30;0.30;;;;;;;15.32;75.52;101185.72;5023099;28;19909;-70
2022/08/08 00:58:45;;;;;;;0.30;0.30;;;;;;;15.38;75.14;101184.75;5023619;28;20250;-67
2022/08/08 01:01:32;;;;;;;0.40;0.40;;;;;;;15.33;75.37;101188.31;5023281;28;20034;-70
2022/08/08 01:04:40;;;;;;;0.20;0.20;;;;;;;15.32;75.38;101181.34;5023542;28;20041;-70
2022/08/08 01:07:47;;;;;;;0.20;0.20;;;;;;;15.31;75.39;101179.63;5023380;28;20050;-70
2022/08/08 01:10:38;;;;;;;0.30;0.30;;;;;;;15.28;75.37;101181.41;5010729;28;20045;-71
2022/08/08 01:13:28;;;;;;;0.33;0.33;;;;;;;15.26;76.06;101183.19;5023186;28;20033;-70
2022/08/08 01:16:13;;;;;;;0.30;0.30;;;;;;;15.25;75.45;101177.09;5022695;28;20337;-70
2022/08/08 01:19:03;;;;;;;0.30;0.30;;;;;;;15.24;76.00;101180.59;5023054;28;20048;-70
2022/08/08 01:21:50;;;;;;;0.30;0.30;;;;;;;15.27;76.14;101180.53;5022937;28;20093;-70
2022/08/08 01:24:53;;;;;;;0.20;0.20;;;;;;;15.27;76.14;101188.38;5023185;28;20065;-70
2022/08/08 01:27:37;;;;;;;0.68;0.68;;;;;;;15.24;76.39;101188.44;5105353;28;20020;-70
2022/08/08 01:30:51;;;;;;;0.30;0.30;;;;;;;15.28;76.44;101191.88;5105622;28;20032;-70
2022/08/08 01:33:48;;;;;;;20.08;2.58;;;;;;;15.24;76.77;101185.81;5105503;28;20054;-71
2022/08/08 01:36:29;;;;;;;0.20;0.20;;;;;;;15.14;77.46;101186.84;5105361;28;20027;-71
2022/08/08 01:39:08;;;;;;;0.22;0.22;;;;;;;15.08;76.95;101187.84;5105344;28;20058;-70
2022/08/08 01:41:40;;;;;;;0.30;0.30;;;;;;;15.07;76.43;101192.19;5105215;28;20083;-70
2022/08/08 01:44:26;;;;;;;0.30;0.30;;;;;;;14.97;76.89;101191.44;5087089;28;20077;-70
2022/08/08 01:47:09;;;;;;;0.30;0.30;;;;;;;14.96;76.33;101192.34;5105106;28;20069;-68
2022/08/08 01:50:11;;;;;;;0.30;0.30;;;;;;;14.94;76.50;101190.63;5105032;28;20024;-69
2022/08/08 01:52:51;;;;;;;0.35;0.35;;;;;;;14.91;76.36;101198.50;5105109;28;20152;-69
2022/08/08 01:55:42;;;;;;;0.28;0.28;;;;;;;14.86;77.33;101196.84;5105072;28;20038;-69
2022/08/08 01:58:20;;;;;;;0.20;0.20;;;;;;;14.80;78.25;101199.53;5105276;28;20035;-68
2022/08/08 02:01:16;;;;;;;0.20;0.20;;;;;;;14.74;78.73;101195.19;5105056;28;20039;-67
2022/08/08 02:04:13;;;;;;;0.52;0.52;;;;;;;14.70;78.33;101190.91;5105075;28;20039;-67
2022/08/08 02:06:38;;;;;;;0.20;0.20;;;;;;;14.64;78.05;101183.16;5104765;28;20023;-67
2022/08/08 02:09:49;;;;;;;0.40;0.40;;;;;;;14.59;79.29;101188.44;5104973;28;20024;-67
2022/08/08 02:12:22;;;;;;;0.40;0.40;;;;;;;14.49;79.45;101186.81;5071560;28;20107;-67
2022/08/08 02:14:58;;;;;;;0.30;0.30;;;;;;;14.48;80.42;101198.16;5104917;28;20024;-68
2022/08/08 02:17:29;;;;;;;0.30;0.30;;;;;;;14.42;80.88;101203.44;5104632;28;20040;-67
2022/08/08 02:20:10;;;;;;;0.77;0.77;;;;;;;14.40;82.32;101194.75;5104993;28;20055;-66
2022/08/08 02:22:42;;;;;;;0.60;0.60;;;;;;;14.42;81.75;101199.09;5104744;28;20024;-66
2022/08/08 02:25:32;;;;;;;0.30;0.30;;;;;;;14.40;82.86;101203.47;5104944;28;20023;-67
2022/08/08 02:28:04;;;;;;;0.30;0.30;;;;;;;14.36;82.42;101199.19;5106303;28;20032;-67
2022/08/08 02:30:47;;;;;;;0.30;0.30;;;;;;;14.36;82.83;101193.94;5108608;28;20055;-67
2022/08/08 02:33:43;;;;;;;0.30;0.30;;;;;;;14.34;83.59;101191.38;5108599;28;20456;-67
2022/08/08 02:36:34;;;;;;;0.40;0.40;;;;;;;14.34;84.76;101198.31;5107861;28;20044;-67
2022/08/08 02:39:06;;;;;;;1.10;0.87;;;;;;;14.34;84.56;101196.59;5006222;28;20034;-68
2022/08/08 02:41:50;;;;;;;0.30;0.30;;;;;;;14.37;84.31;101199.16;5006321;28;20034;-68
2022/08/08 02:44:25;;;;;;;1.27;1.20;;;;;;;14.38;84.92;101203.50;5006386;28;20260;-69
2022/08/08 02:47:27;;;;;;;0.20;0.20;;;;;;;14.37;85.62;101193.94;5006275;28;20238;-69
2022/08/08 02:49:56;;;;;;;1.00;1.00;;;;;;;14.39;85.17;101196.53;5006149;28;20521;-68
2022/08/08 02:52:40;;;;;;;0.30;0.30;;;;;;;14.46;85.04;101197.28;5006038;28;20611;-68
2022/08/08 02:55:43;;;;;;;0.30;0.30;;;;;;;14.47;86.38;101205.13;5006140;28;20037;-68
2022/08/08 02:58:21;;;;;;;0.30;0.30;;;;;;;14.53;85.72;101203.31;5006107;28;20026;-67
2022/08/08 03:01:11;;;;;;;0.30;0.30;;;;;;;14.54;86.04;101202.44;4989770;28;20033;-68
2022/08/08 03:03:55;;;;;;;0.30;0.30;;;;;;;14.58;86.44;101210.25;5005874;28;20042;-68
2022/08/08 03:06:58;;;;;;;0.20;0.20;;;;;;;14.62;86.13;101209.31;5005929;28;20491;-68
2022/08/08 03:10:14;;;;;;;0.30;0.30;;;;;;;14.67;86.05;101205.75;5005826;28;20069;-68
2022/08/08 03:12:51;;;;;;;0.30;0.30;;;;;;;14.70;85.40;101203.97;5005754;28;20050;-68
2022/08/08 03:15:54;;;;;;;0.40;0.40;;;;;;;14.72;86.01;101210.06;5026180;28;20063;-68
2022/08/08 03:18:27;;;;;;;0.20;0.20;;;;;;;14.73;85.84;101211.78;5107542;28;20036;-68
2022/08/08 03:20:52;;;;;;;0.35;0.35;;;;;;;14.76;86.28;101213.47;5089455;28;20026;-67
2022/08/08 03:23:19;;;;;;;0.20;0.20;;;;;;;14.81;85.83;101210.88;5107664;28;20088;-68
2022/08/08 03:25:46;;;;;;;0.30;0.30;;;;;;;14.78;85.93;101211.72;5107538;28;20020;-68
2022/08/08 03:28:20;;;;;;;0.20;0.20;;;;;;;14.80;87.20;101211.72;5107557;28;20050;-68
2022/08/08 03:30:47;;;;;;;0.30;0.30;;;;;;;14.82;86.18;101213.44;5107453;28;20039;-68
2022/08/08 03:33:18;;;;;;;0.50;0.50;;;;;;;14.83;86.57;101212.56;5107704;28;20367;-68
2022/08/08 03:35:46;;;;;;;0.30;0.30;;;;;;;14.85;87.07;101218.63;5107500;28;20024;-68
2022/08/08 03:38:11;;;;;;;0.30;0.30;;;;;;;14.85;87.08;101217.75;5107110;28;20260;-69
2022/08/08 03:40:37;;;;;;;0.30;0.30;;;;;;;14.87;87.76;101223.84;5107196;28;20576;-69
2022/08/08 03:43:05;;;;;;;0.30;0.30;;;;;;;14.91;87.63;101219.41;5088864;28;20027;-69
2022/08/08 03:45:31;;;;;;;0.30;0.30;;;;;;;14.92;87.97;101223.78;5106977;28;20101;-69
2022/08/08 03:47:57;;;;;;;0.77;0.77;;;;;;;14.95;87.74;101224.59;5107340;28;20024;-68
2022/08/08 03:50:24;;;;;;;0.45;0.45;;;;;;;14.96;87.84;101226.34;5107141;28;20024;-68
2022/08/08 03:52:49;;;;;;;0.30;0.30;;;;;;;15.01;87.56;101228.88;5106966;28;20016;-68
2022/08/08 03:55:17;;;;;;;1.85;1.75;;;;;;;15.01;87.78;101223.66;5107116;28;20094;-68
2022/08/08 03:57:49;;;;;;;0.30;0.30;;;;;;;15.05;87.30;101227.94;5107163;28;20045;-68
2022/08/08 04:00:18;;;;;;;0.40;0.40;;;;;;;15.06;87.67;101237.53;5107144;28;20083;-68
2022/08/08 04:02:53;;;;;;;0.30;0.30;;;;;;;15.04;88.27;101231.47;5106947;28;20043;-68
2022/08/08 04:05:18;;;;;;;0.30;0.30;;;;;;;15.03;87.99;101232.31;5106989;28;20020;-68
2022/08/08 04:07:44;;;;;;;0.30;0.30;;;;;;;15.01;88.27;101235.84;5106678;28;20385;-68
2022/08/08 04:10:09;;;;;;;0.30;0.30;;;;;;;15.09;87.91;101237.50;5106781;28;20467;-68
2022/08/08 04:12:35;;;;;;;0.20;0.20;;;;;;;15.10;88.31;101235.72;5106704;28;20019;-69
2022/08/08 04:15:02;;;;;;;0.80;0.80;;;;;;;15.05;88.65;101234.94;5106651;28;20016;-70
2022/08/08 04:17:27;;;;;;;0.30;0.30;;;;;;;15.11;88.41;101240.94;5106388;28;20227;-68
2022/08/08 04:19:55;;;;;;;0.22;0.22;;;;;;;15.14;88.50;101240.03;5106519;28;20054;-68
2022/08/08 04:22:20;;;;;;;46.97;2.08;;;;;;;15.19;88.02;101243.44;5106037;28;20020;-69
2022/08/08 04:24:45;;;;;;;1.05;1.05;;;;;;;15.20;88.18;101239.06;5087931;28;20072;-70
2022/08/08 04:27:10;;;;;;;0.30;0.30;;;;;;;15.21;88.24;101235.56;5106642;28;20054;-70
2022/08/08 04:29:36;;;;;;;0.40;0.40;;;;;;;15.22;88.38;101237.31;5106691;28;20024;-67
2022/08/08 04:32:01;;;;;;;0.43;0.43;;;;;;;15.20;88.62;101241.69;5106403;28;20080;-68
2022/08/08 04:34:27;;;;;;;0.30;0.30;;;;;;;15.24;89.08;101245.97;5106533;28;20039;-69
2022/08/08 04:36:52;;;;;;;0.30;0.30;;;;;;;15.30;88.95;101251.16;5106276;28;20027;-68
2022/08/08 04:39:17;;;;;;;0.30;0.30;;;;;;;15.29;88.97;101246.78;5106317;28;20020;-68
2022/08/08 04:41:43;;;;;;;0.25;0.25;;;;;;;15.30;89.38;101239.81;5106237;28;20496;-68
2022/08/08 04:44:08;;;;;;;0.20;0.20;;;;;;;15.33;89.32;101251.09;5106333;28;20028;-69
2022/08/08 04:46:34;;;;;;;0.55;0.55;;;;;;;15.41;88.97;101257.97;5106239;28;20054;-68
2022/08/08 04:48:59;;;;;;;0.20;0.20;;;;;;;15.45;89.06;101249.16;5105925;28;20019;-69
2022/08/08 04:51:24;;;;;;;0.28;0.28;;;;;;;15.45;89.12;101254.41;5105203;28;20031;-68
2022/08/08 04:53:50;;;;;;;0.30;0.30;;;;;;;15.45;88.94;101263.13;5105901;28;20027;-70
2022/08/08 04:56:18;;;;;;;1.10;1.10;;;;;;;15.46;88.97;101256.16;5106177;28;20020;-69
2022/08/08 04:58:43;;;;;;;0.30;0.30;;;;;;;15.51;88.78;101258.69;5088279;28;20300;-68
2022/08/08 05:01:09;;;;;;;0.95;0.95;;;;;;;15.56;88.74;101262.94;5105914;28;20036;-69
2022/08/08 05:03:34;;;;;;;0.30;0.30;;;;;;;15.59;88.48;101262.91;5105940;28;20024;-69
2022/08/08 05:06:00;;;;;;;0.22;0.22;;;;;;;15.66;88.41;101260.19;5105641;28;20429;-70
2022/08/08 05:08:26;;;;;;;0.30;0.30;;;;;;;15.68;87.84;101266.28;5105717;28;20039;-70
2022/08/08 05:10:52;;;;;;;0.40;0.40;;;;;;;15.67;87.92;101270.63;5106013;28;20023;-69
2022/08/08 05:13:17;;;;;;;0.25;0.25;;;;;;;15.70;87.88;101273.19;5105899;28;20111;-68
2022/08/08 05:15:43;;;;;;;1.10;1.10;;;;;;;15.73;87.71;101274.91;5105626;28;20027;-71
2022/08/08 05:18:08;;;;;;;0.70;0.70;;;;;;;15.73;87.45;101277.53;5105529;28;20048;-69
2022/08/08 05:20:34;;;;;;;0.30;0.30;;;;;;;15.73;87.53;101270.53;5105580;28;20088;-70
2022/08/08 05:22:59;;;;;;;0.30;0.30;;;;;;;15.77;87.26;101284.44;5105363;28;20028;-70
2022/08/08 05:25:24;;;;;;;2.13;2.03;;;;;;;15.79;87.33;101290.53;5105611;28;20047;-70
2022/08/08 05:27:52;;;;;;;0.30;0.30;;;;;;;15.77;87.27;101294.91;5105618;28;20043;-70
2022/08/08 05:30:18;;;;;;;0.20;0.20;;;;;;;15.82;87.09;101287.84;5087312;28;20028;-71
2022/08/08 05:32:43;;;;;;;0.25;0.25;;;;;;;15.80;87.32;101286.16;5087424;28;20024;-70
2022/08/08 05:35:12;;;;;;;0.20;0.20;;;;;;;15.85;87.12;101290.44;5105477;28;20047;-70
2022/08/08 05:37:38;;;;;;;0.30;0.30;;;;;;;15.88;87.19;101288.66;5105393;28;20074;-70
2022/08/08 05:40:04;;;;;;;0.22;0.22;;;;;;;15.87;87.29;101293.00;5105586;28;20039;-70
2022/08/08 05:42:44;;;;;;;0.28;0.28;;;;;;;15.89;87.56;101291.25;5105259;28;20025;-70
2022/08/08 05:45:12;;;;;;;2.47;2.05;;;;;;;15.86;87.08;101292.13;5105485;28;20106;-70
2022/08/08 05:47:39;;;;;;;0.30;0.30;;;;;;;15.92;87.21;101293.81;5105396;28;20035;-70
2022/08/08 05:50:05;;;;;;;0.30;0.30;;;;;;;15.95;87.31;101295.50;5087131;28;20051;-70
2022/08/08 05:52:33;;;;;;;0.20;0.20;;;;;;;15.98;86.97;101300.72;5105257;28;20661;-70
2022/08/08 05:54:59;;;;;;;0.20;0.20;;;;;;;15.96;87.24;101297.22;5105414;28;20024;-70
2022/08/08 05:57:27;;;;;;;0.43;0.43;;;;;;;16.00;87.13;101298.94;5105351;28;20047;-70
2022/08/08 05:59:56;;;;;;;0.30;0.30;;;;;;;15.98;87.00;101296.34;5105520;28;20376;-70
2022/08/08 06:05:11;;;;;;;0.20;0.20;;;;;;;16.05;86.80;101302.38;5109456;28;20035;-69
2022/08/08 06:07:40;;;;;;;1.75;1.38;;;;;;;16.12;86.72;101302.25;5109115;28;20024;-70
2022/08/08 06:10:08;;;;;;;0.60;0.55;;;;;;;16.17;87.04;101305.63;5109063;28;20101;-70
2022/08/08 06:12:35;;;;;;;1.20;1.08;;;;;;;16.21;86.78;101312.56;5109163;28;20055;-71
2022/08/08 06:15:03;;;;;;;0.30;0.30;;;;;;;16.37;86.90;101307.03;5109158;28;20027;-73
2022/08/08 06:17:33;;;;;;;0.20;0.20;;;;;;;16.51;86.60;101310.28;5108969;28;20075;-72
2022/08/08 06:20:02;;;;;;;0.20;0.20;;;;;;;16.58;86.33;101301.38;5109044;28;20413;-73
2022/08/08 06:22:27;;;;;;;0.25;0.25;;;;;;;16.75;86.13;101307.19;5108799;28;20051;-70
2022/08/08 06:24:52;;;;;;;0.20;0.20;;;;;;;16.89;85.83;101312.16;5090666;28;20031;-74
2022/08/08 06:27:35;;;;;;;0.20;0.20;;;;;;;17.08;85.34;101320.53;5108716;28;20024;-71
2022/08/08 06:30:05;;;;;;;0.40;0.40;;;;;;;17.22;84.86;101328.16;5108932;28;20028;-72
2022/08/08 06:32:31;;;;;;;0.65;0.65;;;;;;;17.26;83.84;101327.16;5109097;28;20020;-74
2022/08/08 06:35:02;;;;;;;0.25;0.25;;;;;;;17.43;83.75;101323.28;5109038;28;20341;-72
2022/08/08 06:37:32;;;;;;;0.30;0.30;;;;;;;17.60;83.60;101338.69;5108842;28;20032;-74
2022/08/08 06:40:02;;;;;;;9.05;1.88;;;;;;;17.78;84.07;101331.28;5108991;28;20156;-73
2022/08/08 06:42:36;;;;;;;0.20;0.20;;;;;;;17.95;83.36;101333.47;5108765;28;20464;-73
2022/08/08 06:45:06;;;;;;;0.40;0.40;;;;;;;18.04;83.15;101333.25;5108865;28;20433;-72
2022/08/08 06:47:33;;;;;;;0.20;0.20;;;;;;;18.25;83.44;101338.03;5108593;28;20028;-73
2022/08/08 06:49:59;;;;;;;0.20;0.20;;;;;;;18.41;83.54;101341.13;5090383;28;20047;-71
2022/08/08 06:52:26;;;;;;;0.20;0.20;;;;;;;18.71;83.18;101341.19;5108436;28;20022;-71
2022/08/08 06:54:51;;;;;;;0.20;0.20;;;;;;;18.97;81.97;101331.69;5108575;28;20024;-73
2022/08/08 06:57:17;;;;;;;0.60;0.60;;;;;;;19.24;81.56;101337.09;5108495;28;20032;-72
2022/08/08 06:59:42;;;;;;;0.20;0.20;;;;;;;19.29;81.27;101334.31;5108283;28;20016;-71
2022/08/08 07:02:18;;;;;;;0.20;0.20;;;;;;;19.32;81.23;101335.09;5108150;28;20024;-72
2022/08/08 07:05:13;;;;;;;2.08;1.05;;;;;;;19.79;79.66;101344.16;5108361;28;20052;-72
2022/08/08 07:07:50;;;;;;;0.20;0.20;;;;;;;20.81;77.53;101349.50;5107380;28;20526;-73
2022/08/08 07:10:21;;;;;;;0.20;0.20;;;;;;;21.97;81.33;101344.25;5108238;28;20038;-72
2022/08/08 07:12:52;;;;;;;0.20;0.20;;;;;;;22.88;74.51;101341.25;5107977;28;20083;-72
2022/08/08 07:15:26;;;;;;;0.10;0.10;;;;;;;23.94;74.95;101346.91;5107899;28;20024;-72
2022/08/08 07:17:58;;;;;;;0.20;0.20;;;;;;;24.50;70.07;101349.41;5107897;28;20052;-72
2022/08/08 07:20:28;;;;;;;0.40;0.40;;;;;;;24.60;63.00;101348.91;5108102;28;20050;-72
2022/08/08 07:23:13;;;;;;;0.63;0.63;;;;;;;24.84;63.92;101348.53;5107812;28;20081;-73
2022/08/08 07:25:40;;;;;;;0.10;0.10;;;;;;;25.13;62.94;101354.94;5107969;28;20032;-72
2022/08/08 07:28:14;;;;;;;0.30;0.30;;;;;;;25.30;61.21;101344.31;5089675;28;20027;-72
2022/08/08 07:30:41;;;;;;;0.10;0.10;;;;;;;25.70;60.54;101352.69;5107929;28;20020;-72
2022/08/08 07:33:10;;;;;;;0.10;0.10;;;;;;;26.10;58.04;101352.13;5107730;28;20084;-72
2022/08/08 07:35:37;;;;;;;0.10;0.10;;;;;;;26.72;57.74;101342.25;5107876;28;20020;-72
2022/08/08 07:38:03;;;;;;;0.10;0.10;;;;;;;27.19;56.20;101343.84;5107590;28;20020;-74
2022/08/08 07:40:29;;;;;;;0.40;0.40;;;;;;;28.02;56.55;101344.66;5107862;28;20019;-73
2022/08/08 07:42:55;;;;;;;0.10;0.10;;;;;;;28.33;51.44;101344.38;5107873;28;20028;-73
2022/08/08 07:45:22;;;;;;;0.10;0.10;;;;;;;28.59;50.22;101349.72;5107492;28;20503;-72
2022/08/08 07:47:48;;;;;;;0.15;0.15;;;;;;;29.13;50.01;101345.03;5107445;28;20024;-73
2022/08/08 07:50:14;;;;;;;0.10;0.10;;;;;;;29.64;48.83;101342.28;5107596;28;20030;-72
2022/08/08 07:52:45;;;;;;;0.10;0.10;;;;;;;30.20;50.49;101358.63;5089252;28;20119;-73
2022/08/08 07:55:10;;;;;;;;;;;;;;;30.53;48.72;101363.19;5107971;28;20026;-73
2022/08/08 07:58:08;;;;;;;0.20;0.20;;;;;;;30.51;45.73;101369.63;5107428;28;20256;-73
2022/08/08 08:00:40;;;;;;;0.10;0.10;;;;;;;30.38;46.87;101359.91;5107249;28;20031;-72
2022/08/08 08:03:09;;;;;;;0.10;0.10;;;;;;;30.10;48.60;101372.69;5107237;28;20031;-72
2022/08/08 08:05:47;;;;;;;0.10;0.10;;;;;;;30.51;48.27;101375.00;5107238;28;20356;-72
2022/08/08 08:08:18;;;;;;;0.10;0.10;;;;;;;30.20;44.38;101372.03;5107125;28;20459;-73
2022/08/08 08:10:48;;;;;;;0.10;0.10;;;;;;;29.78;47.02;101378.69;5107204;28;20194;-73
2022/08/08 08:13:21;;;;;;;0.10;0.10;;;;;;;29.20;46.86;101380.22;5107106;28;20103;-73
2022/08/08 08:16:05;;;;;;;0.10;0.10;;;;;;;28.09;47.33;101380.66;5106862;28;20536;-72
2022/08/08 08:18:46;;;;;;;0.10;0.10;;;;;;;26.88;44.91;101399.91;5106645;28;20052;-72
2022/08/08 08:21:14;;;;;;;0.10;0.10;;;;;;;26.92;47.02;101390.75;5106781;28;20095;-73
2022/08/08 08:23:40;;;;;;;0.10;0.10;;;;;;;27.11;42.34;101394.94;5106851;28;20045;-73
2022/08/08 08:26:05;;;;;;;0.10;0.10;;;;;;;27.17;43.19;101388.38;5106586;28;20024;-73
2022/08/08 08:28:31;;;;;;;0.10;0.10;;;;;;;27.51;42.93;101388.88;5106839;28;20475;-72
2022/08/08 08:31:01;;;;;;;0.10;0.10;;;;;;;27.62;43.00;101393.47;5107053;28;20024;-73
2022/08/08 08:33:27;;;;;;;0.10;0.10;;;;;;;27.64;40.81;101396.91;5106766;28;20020;-73
2022/08/08 08:35:52;;;;;;;0.10;0.10;;;;;;;27.43;40.27;101405.34;5106477;28;20107;-73
2022/08/08 08:38:17;;;;;;;0.10;0.10;;;;;;;27.46;39.96;101399.81;5106521;28;20169;-73
2022/08/08 08:40:43;;;;;;;0.10;0.10;;;;;;;27.29;41.64;101416.06;5106457;28;20035;-73
2022/08/08 08:43:09;;;;;;;0.10;0.10;;;;;;;27.65;41.43;101408.44;5106364;28;20024;-73
2022/08/08 08:45:36;;;;;;;0.10;0.10;;;;;;;28.05;39.82;101411.16;5106453;28;20022;-74
2022/08/08 08:48:02;;;;;;;0.10;0.10;;;;;;;28.27;39.29;101409.72;5106584;28;20031;-72
2022/08/08 08:50:29;;;;;;;0.10;0.10;;;;;;;28.21;39.76;101418.16;5106248;28;20028;-73
2022/08/08 08:52:56;;;;;;;0.10;0.10;;;;;;;27.88;40.49;101414.09;5105969;28;20051;-73
2022/08/08 08:55:23;;;;;;;0.10;0.10;;;;;;;27.50;39.99;101418.28;5106193;28;20024;-73
2022/08/08 08:57:51;;;;;;;0.30;0.30;;;;;;;27.22;41.00;101416.44;5106091;28;20028;-73
2022/08/08 09:00:17;;;;;;;0.52;0.52;;;;;;;27.34;41.37;101421.94;5106110;28;20051;-73
2022/08/08 09:02:43;;;;;;;0.10;0.10;;;;;;;28.02;41.09;101426.53;5105947;28;20143;-73
2022/08/08 09:05:11;;;;;;;0.15;0.15;;;;;;;27.99;38.76;101418.75;5106023;28;20361;-73
2022/08/08 09:07:40;;;;;;;0.13;0.13;;;;;;;27.68;39.38;101425.16;5105869;28;20024;-73
2022/08/08 09:10:06;;;;;;;0.10;0.10;;;;;;;27.50;39.41;101431.63;5106102;28;20103;-73
2022/08/08 09:12:34;;;;;;;0.10;0.10;;;;;;;27.30;39.20;101425.78;5105923;28;20075;-73
2022/08/08 09:14:59;;;;;;;0.10;0.10;;;;;;;27.30;40.13;101425.78;5105882;28;20480;-72
2022/08/08 09:17:26;;;;;;;0.10;0.10;;;;;;;27.19;40.20;101437.13;5105814;28;20061;-73
2022/08/08 09:19:57;;;;;;;0.10;0.10;;;;;;;26.87;40.05;101430.13;5087670;28;20083;-72
2022/08/08 09:22:23;;;;;;;0.20;0.20;;;;;;;26.73;40.34;101437.19;5105502;28;20464;-73
2022/08/08 09:24:50;;;;;;;0.25;0.25;;;;;;;26.40;39.40;101438.28;5105727;28;20104;-72
2022/08/08 09:27:17;;;;;;;0.10;0.10;;;;;;;25.97;40.08;101433.63;5105778;28;20124;-72
2022/08/08 09:29:51;;;;;;;0.10;0.10;;;;;;;25.61;40.70;101435.59;5105650;28;20031;-73
2022/08/08 09:32:33;;;;;;;0.10;0.10;;;;;;;25.27;40.50;101438.34;5105699;28;20042;-73
2022/08/08 09:35:01;;;;;;;0.10;0.10;;;;;;;25.14;41.37;101432.84;5105648;28;20444;-72
2022/08/08 09:37:29;;;;;;;0.20;0.20;;;;;;;24.89;41.88;101434.13;5105307;28;20028;-72
2022/08/08 09:40:03;;;;;;;0.10;0.10;;;;;;;25.09;42.42;101430.44;5105529;28;20465;-73
2022/08/08 09:42:38;;;;;;;0.20;0.20;;;;;;;25.14;41.47;101438.16;5105585;28;20031;-73
2022/08/08 09:45:35;;;;;;;0.10;0.10;;;;;;;24.68;41.13;101436.94;5105610;28;20026;-73
2022/08/08 09:48:03;;;;;;;1.58;1.48;;;;;;;24.45;42.32;101438.16;5105423;28;20016;-73
2022/08/08 09:50:32;;;;;;;0.10;0.10;;;;;;;24.39;42.98;101441.97;5105541;28;20381;-73
2022/08/08 09:53:01;;;;;;;0.10;0.10;;;;;;;24.36;41.89;101442.13;5105439;28;20020;-72
2022/08/08 09:55:29;;;;;;;0.10;0.10;;;;;;;24.05;42.70;101451.56;5105571;28;20020;-72
2022/08/08 09:58:19;;;;;;;0.10;0.10;;;;;;;23.81;43.35;101455.34;5105408;28;20024;-72
2022/08/08 10:00:46;;;;;;;0.10;0.10;;;;;;;23.74;43.94;101452.13;5092719;28;20040;-72
2022/08/08 10:03:16;;;;;;;2.65;1.35;;;;;;;23.63;44.29;101450.00;5105369;28;20024;-73
2022/08/08 10:05:43;;;;;;;0.10;0.10;;;;;;;23.66;44.58;101453.44;5104867;28;20081;-72
2022/08/08 10:08:08;;;;;;;0.10;0.10;;;;;;;23.84;44.65;101449.91;5105342;28;20110;-73
2022/08/08 10:10:42;;;;;;;0.10;0.10;;;;;;;23.98;43.08;101456.31;5105268;28;20111;-73
2022/08/08 10:13:30;;;;;;;0.10;0.10;;;;;;;24.00;43.02;101451.81;5105424;28;20040;-73
2022/08/08 10:16:00;;;;;;;0.30;0.30;;;;;;;24.10;43.69;101458.38;5105415;28;20038;-72
2022/08/08 10:18:30;;;;;;;0.10;0.10;;;;;;;24.22;42.89;101464.03;5104957;28;20052;-73
2022/08/08 10:21:24;;;;;;;0.17;0.17;;;;;;;24.82;43.57;101460.16;5087003;28;20041;-72
2022/08/08 10:23:52;;;;;;;0.10;0.10;;;;;;;25.38;42.86;101453.69;5083679;28;20047;-72
2022/08/08 10:26:38;;;;;;;0.10;0.10;;;;;;;26.03;42.40;101448.38;5105215;28;20024;-72
2022/08/08 10:29:07;;;;;;;0.10;0.10;;;;;;;26.36;41.23;101460.69;5105092;28;20046;-73
2022/08/08 10:34:21;;;;;;;0.10;0.10;;;;;;;26.88;40.88;101460.31;5105414;28;20058;-72
2022/08/08 10:36:48;;;;;;;0.10;0.10;;;;;;;27.27;40.62;101457.97;5105041;28;20112;-72
2022/08/08 10:39:24;;;;;;;0.10;0.10;;;;;;;27.31;39.75;101448.81;5105036;28;20031;-72
2022/08/08 10:41:58;;;;;;;0.63;0.35;;;;;;;27.35;39.79;101456.50;5104892;28;20306;-72
2022/08/08 10:44:33;;;;;;;0.15;0.15;;;;;;;27.62;40.30;101454.81;5105115;28;20031;-72
2022/08/08 10:47:14;;;;;;;0.10;0.10;;;;;;;28.44;38.82;101459.31;5104993;28;20121;-73
2022/08/08 10:49:54;;;;;;;0.10;0.10;;;;;;;29.18;37.31;101460.53;5107210;28;20028;-72
2022/08/08 10:52:33;;;;;;;0.10;0.10;;;;;;;29.26;37.32;101459.97;5108542;28;20031;-72
2022/08/08 10:55:01;;;;;;;0.10;0.10;;;;;;;28.56;35.97;101459.44;5108632;28;20148;-72
2022/08/08 10:57:26;;;;;;;0.13;0.13;;;;;;;27.45;37.24;101454.13;5108512;28;20088;-72
2022/08/08 10:59:53;;;;;;;0.10;0.10;;;;;;;27.60;36.75;101462.09;5108378;28;20024;-72
2022/08/08 11:02:40;;;;;;;0.10;0.10;;;;;;;27.31;37.08;101452.34;5108278;28;20028;-72
2022/08/08 11:05:08;;;;;;;0.10;0.10;;;;;;;26.94;37.43;101463.44;5108383;28;20027;-75
2022/08/08 11:07:36;;;;;;;0.10;0.10;;;;;;;26.16;38.23;101465.34;5108221;28;20028;-74
2022/08/08 11:10:09;;;;;;;0.10;0.10;;;;;;;25.62;39.97;101464.78;5108319;28;20044;-73
2022/08/08 11:12:45;;;;;;;0.10;0.10;;;;;;;25.43;39.84;101474.72;5108352;28;20483;-75
2022/08/08 11:15:15;;;;;;;0.20;0.20;;;;;;;25.33;40.68;101466.38;5108210;28;20031;-72
2022/08/08 11:17:42;;;;;;;0.10;0.10;;;;;;;25.21;40.60;101484.69;5107968;28;20119;-74
2022/08/08 11:20:10;;;;;;;0.10;0.10;;;;;;;25.03;40.83;101477.72;5089766;28;20015;-72
2022/08/08 11:22:37;;;;;;;0.20;0.20;;;;;;;24.80;40.91;101471.75;5089239;28;20031;-73
2022/08/08 11:25:05;;;;;;;0.10;0.10;;;;;;;24.48;41.39;101464.53;5108003;28;20479;-72
2022/08/08 11:27:33;;;;;;;0.13;0.13;;;;;;;24.20;41.92;101466.75;5107825;28;20058;-73
2022/08/08 11:30:00;;;;;;;0.10;0.10;;;;;;;23.85;41.18;101471.97;5107938;28;20028;-73
2022/08/08 11:32:30;;;;;;;0.10;0.10;;;;;;;23.56;42.17;101469.78;5108003;28;20031;-73
2022/08/08 11:35:13;;;;;;;0.10;0.10;;;;;;;23.23;42.26;101478.28;5107866;28;20028;-74
2022/08/08 11:37:40;;;;;;;0.10;0.10;;;;;;;22.88;42.63;101468.34;5107598;28;20024;-73
2022/08/08 11:40:11;;;;;;;0.10;0.10;;;;;;;22.83;43.03;101478.28;5107748;28;20032;-73
2022/08/08 11:42:38;;;;;;;0.20;0.20;;;;;;;22.64;43.70;101487.00;5107670;28;20026;-73
2022/08/08 11:45:05;;;;;;;0.20;0.20;;;;;;;22.62;43.81;101495.00;5089331;28;20035;-73
2022/08/08 11:47:32;;;;;;;0.20;0.20;;;;;;;22.45;44.16;101490.38;5107444;28;20490;-74
2022/08/08 11:50:20;;;;;;;0.20;0.20;;;;;;;22.44;44.48;101488.69;5107389;28;20549;-73
2022/08/08 11:52:46;;;;;;;0.17;0.17;;;;;;;22.44;44.63;101490.47;5088985;28;20459;-74
2022/08/08 11:55:26;;;;;;;0.20;0.20;;;;;;;22.45;45.03;101484.22;5107373;28;20032;-74
2022/08/08 11:58:11;;;;;;;0.20;0.20;;;;;;;22.45;44.62;101487.75;5107414;28;20020;-74
2022/08/08 12:00:52;;;;;;;0.15;0.15;;;;;;;22.29;44.92;101488.38;5106930;28;20030;-74
2022/08/08 12:03:32;;;;;;;0.10;0.10;;;;;;;22.09;45.40;101485.69;5107190;28;20099;-73